Flight Track Log - Related Links

Times and Time Zones

All times are in EDT time to prevent confusion due to time zone crossing. See the SKW6345 flight status page for this flight to view local times or setup timezone preferences in your user account.

Time Position Orientation Groundspeed Altitude Reporting Facility
EDT Latitude Longitude Course Direction KTS MPH feet Rate Location/Type
Mon 09:17:28 AM 44.5075 -109.0547 157° South 141 162 6,100  Level Salt Lake Center
Mon 09:18:00 AM 44.2083 -108.7166 158° South  Level FlightAware Approximate
Mon 09:18:29 AM 44.4619 -109.0539 179° South 238 274 8,700  Level Salt Lake Center
Mon 09:19:00 AM 44.0967 -108.6551 157° South  Level FlightAware Approximate
Mon 09:19:30 AM 44.4922 -108.9517 67° East 269 310 11,500  Level Salt Lake Center
Mon 09:20:00 AM 43.9860 -108.5908 157° South  Level FlightAware Approximate
Mon 09:20:31 AM 44.4711 -108.8464 106° East 309 356 13,000  Level Salt Lake Center
Mon 09:21:00 AM 43.8751 -108.5267 157° South  Level FlightAware Approximate
Mon 09:21:32 AM 44.3958 -108.7808 148° Southeast 331 381 14,800  Level Salt Lake Center
Mon 09:22:00 AM 43.7643 -108.4629 157° South  Level FlightAware Approximate
Mon 09:22:33 AM 44.3025 -108.6950 147° Southeast 353 406 17,100  Level Salt Lake Center
Mon 09:23:34 AM 44.2211 -108.6197 146° Southeast 363 418 19,300 1,918 Climbing Salt Lake Center
Mon 09:24:35 AM 44.1367 -108.5444 147° Southeast 371 427 21,000 1,721 Climbing Salt Lake Center
Mon 09:25:36 AM 44.0392 -108.4550 147° Southeast 376 433 22,800 1,525 Climbing Salt Lake Center
Mon 09:26:37 AM 43.9533 -108.3789 147° Southeast 382 440 24,100 1,240 Climbing Salt Lake Center
Mon 09:27:37 AM 43.8494 -108.2881 148° Southeast 392 451 25,300 992 Climbing Salt Lake Center
Mon 09:28:38 AM 43.7564 -108.2064 148° Southeast 407 468 26,100 787 Climbing Salt Lake Center
Mon 09:29:39 AM 43.6608 -108.1194 147° Southeast 424 488 26,900 984 Climbing Salt Lake Center
Mon 09:30:40 AM 43.5458 -108.0175 147° Southeast 438 504 28,100 1,230 Climbing Salt Lake Center
Mon 09:31:41 AM 43.4489 -107.9300 147° Southeast 437 503 29,400 1,033 Climbing Salt Lake Center
Mon 09:32:42 AM 43.3506 -107.8458 148° Southeast 435 501 30,200 738 Climbing Salt Lake Center
Mon 09:33:43 AM 43.2353 -107.7447 147° Southeast 440 506 30,900 393 Climbing Salt Lake Center
Mon 09:34:44 AM 43.1325 -107.6553 148° Southeast 454 522 31,000 51 Climbing Salt Lake Center
Mon 09:35:41 AM 43.0275 -107.5625 147° Southeast 465 535 31,000  Level Denver Center
Mon 09:36:42 AM 42.9231 -107.4717 148° Southeast 464 534 31,000  Level Denver Center
Mon 09:37:43 AM 42.8047 -107.3700 148° Southeast 465 535 31,000  Level Denver Center
Mon 09:38:44 AM 42.6989 -107.2789 148° Southeast 468 539 31,000  Level Denver Center
Mon 09:39:45 AM 42.5753 -107.1750 148° Southeast 466 536 31,000  Level Denver Center
Mon 09:40:46 AM 42.4714 -107.0858 148° Southeast 462 532 31,000  Level Denver Center
Mon 09:41:47 AM 42.3669 -106.9986 148° Southeast 460 529 31,000  Level Denver Center
Mon 09:42:48 AM 42.2456 -106.8964 148° Southeast 459 528 31,000  Level Denver Center
Mon 09:43:50 AM 42.1431 -106.8097 148° Southeast 455 524 31,000  Level Denver Center
Mon 09:44:51 AM 42.0439 -106.7142 144° Southeast 456 525 31,000  Level Denver Center
Mon 09:45:52 AM 41.9286 -106.6019 144° Southeast 457 526 31,000  Level Denver Center
Mon 09:46:53 AM 41.8311 -106.5069 144° Southeast 454 522 31,000  Level Denver Center
Mon 09:47:54 AM 41.7228 -106.4017 144° Southeast 452 520 31,000  Level Denver Center
Mon 09:48:55 AM 41.6228 -106.3050 144° Southeast 459 528 31,000  Level Denver Center
Mon 09:49:56 AM 41.5106 -106.1972 144° Southeast 449 517 31,000  Level Denver Center
Mon 09:50:58 AM 41.4139 -106.1050 144° Southeast 447 514 31,000  Level Denver Center
Mon 09:51:59 AM 41.3172 -106.0139 145° Southeast 446 513 31,000  Level Denver Center
Mon 09:53:00 AM 41.2053 -105.9053 144° Southeast 447 514 31,000  Level Denver Center
Mon 09:54:01 AM 41.1100 -105.8164 145° Southeast 441 507 31,000  Level Denver Center
Mon 09:55:02 AM 41.0089 -105.7219 145° Southeast 446 513 31,000 -878 Level Denver Center
Mon 09:56:04 AM 40.9064 -105.6261 145° Southeast 448 516 29,200 -2,146 Descending Denver Center
Mon 09:57:05 AM 40.8042 -105.5297 144° Southeast 448 516 26,600 -2,705 Descending Denver Center
Mon 09:58:06 AM 40.6903 -105.4222 144° Southeast 429 494 23,700 -2,634 Descending Denver Center
Mon 09:59:08 AM 40.5947 -105.3347 145° Southeast 418 481 21,200 -2,244 Descending Denver Center
Mon 10:00:09 AM 40.5036 -105.2497 145° Southeast 401 461 19,100 -1,918 Descending Denver Center
Mon 10:01:10 AM 40.4608 -105.1256 114° Southeast 367 422 17,300 -1,805 Descending Denver Center
Mon 10:02:12 AM 40.4272 -105.0050 110° East 353 406 15,400 -1,415 Descending Denver Center
Mon 10:03:13 AM 40.3864 -104.9033 118° Southeast 324 373 14,400 -1,180 Descending Denver Center
Mon 10:04:14 AM 40.3258 -104.8314 138° Southeast 294 338 13,000 -1,171 Descending Denver Center
Mon 10:05:16 AM 40.2597 -104.7742 147° Southeast 255 293 12,000 -1,171 Descending Denver Center
Mon 10:06:17 AM 40.1906 -104.7525 167° South 253 291 10,600 -1,366 Descending Denver Center
Mon 10:07:19 AM 40.1244 -104.7317 166° South 243 280 9,200 -1,220 Descending Denver Center
Mon 10:08:20 AM 40.0608 -104.7117 166° South 234 269 8,100 -927 Descending Denver Center
Mon 10:09:22 AM 40.0022 -104.6931 166° South 197 227 7,300 -780 Descending Denver Center
Mon 10:10:23 AM 39.9581 -104.6864 173° South 163 188 6,500 -683 Descending Denver Center
Mon 10:11:25 AM 39.9219 -104.6867 180° South 135 155 5,900 -585 Descending Denver Center
Mon 10:12:26 AM 39.8897 -104.6869 180° South 128 147 5,300 -590 Descending Denver Center
Mon 10:14:00 AM 39.8617 -104.6732 180° South  Level Estimated

Login

Don't have an account? Register now (free) for customized features, flight alerts, and more!